Date,TemperatureHighF,TemperatureAvgF,TemperatureLowF,DewpointHighF,DewpointAvgF,DewpointLowF,HumidityHigh,HumidityAvg,HumidityLow,PressureMaxIn,PressureMinIn,WindSpeedMaxMPH,WindSpeedAvgMPH,GustSpeedMaxMPH,PrecipitationSumIn
2013-1-2,9,6,4,3,-1,-2,77,72,62,30.55,30.48,19,7,19,0.00
2013-1-3,30,18,7,11,2,-4,61,50,39,30.53,30.29,24,14,24,0.00
2013-1-4,34,22,14,14,5,-2,53,47,40,30.33,30.14,29,10,29,0.00
2013-1-5,31,20,13,14,5,-2,60,51,43,30.45,30.19,24,11,24,0.00
2013-1-6,46,30,13,14,8,1,61,41,21,30.34,29.91,33,13,33,0.00
2013-1-8,32,28,23,20,18,16,75,66,60,30.14,30.08,29,10,29,0.00
2013-1-9,35,33,28,21,20,18,66,59,56,30.17,30.09,32,18,32,0.00
2013-1-13,9,3,-3,-2,-5,-10,75,68,56,30.47,30.38,16,7,16,0.00
2013-1-14,11,1,-10,-4,-10,-18,71,60,47,30.52,30.31,26,10,26,0.00
2013-1-15,12,8,5,0,-4,-10,58,56,54,30.31,30.23,22,11,22,0.00
2013-1-18,49,42,29,8,6,4,35,23,16,30.12,29.94,35,18,35,0.00
2013-1-19,47,37,25,10,6,2,48,29,16,30.24,30.06,29,12,29,0.00
2013-1-20,34,26,9,16,11,3,83,55,32,30.42,30.04,23,7,23,0.00
2013-1-21,49,32,12,13,9,6,82,42,18,30.35,29.95,32,14,32,0.00
2013-1-22,52,38,26,7,4,-2,38,24,13,30.13,29.90,28,14,28,0.00
2013-1-23,58,44,30,8,2,-7,28,18,9,30.04,29.84,23,10,23,0.00
2013-1-24,52,43,31,29,20,6,79,42,23,30.01,29.76,46,17,46,0.00
2013-1-25,46,35,30,26,24,22,76,65,41,30.10,29.98,31,15,31,0.00
2013-2-7,32,28,24,8,6,4,47,40,31,30.03,29.89,10,4,10,0.00
2013-2-8,48,34,21,17,10,3,59,39,19,29.95,29.69,21,7,21,0.00
2013-2-9,30,24,19,19,16,13,83,73,56,29.80,29.72,11,2,11,0.00
2013-2-11,24,12,2,12,3,-8,77,66,54,30.35,30.17,20,9,20,0.00
2013-2-12,28,18,9,14,7,-2,72,61,51,30.30,30.07,27,11,27,0.00
2013-2-13,24,21,18,14,12,10,72,69,64,30.07,29.97,22,10,22,0.00
2013-2-23,38,31,25,26,22,16,92,70,41,29.74,29.57,27,13,27,0.00
2013-2-24,25,24,23,22,19,18,87,84,79,30.06,29.74,36,21,36,0.00
2013-2-25,30,26,21,14,12,10,63,56,51,30.01,29.80,28,12,28,0.00
2013-2-26,29,24,15,22,18,9,86,76,56,30.28,29.79,33,13,33,0.00
2013-2-27,29,20,12,16,11,6,84,66,49,30.41,30.26,24,13,24,0.00
2013-2-28,21,17,15,9,7,6,68,64,60,30.31,30.29,18,10,18,0.00
2013-3-2,54,44,31,28,25,21,74,49,30,30.26,29.76,30,12,30,0.00
2013-3-3,44,42,40,25,24,23,53,48,45,29.76,29.68,22,12,22,0.00
2013-3-5,29,15,6,12,6,-1,75,67,42,30.47,30.36,17,4,17,0.00
2013-3-10,25,25,25,19,19,18,76,76,76,30.25,30.25,13,6,13,0.00
2013-3-23,14,12,10,6,5,3,76,74,67,30.39,30.33,7,1,7,0.00
2013-3-24,21,14,8,11,7,3,81,73,51,30.43,30.26,22,8,22,0.00
2013-3-25,36,20,3,15,8,-2,83,62,30,30.49,30.16,21,7,21,0.00
2013-3-26,44,32,18,20,14,7,72,49,24,30.18,29.93,20,6,20,0.00
2013-3-27,55,38,22,30,23,16,81,58,31,30.07,29.88,18,3,18,0.00
2013-4-1,53,42,25,24,21,16,80,47,28,30.09,29.98,17,5,17,0.00
2013-4-2,56,41,24,28,20,14,78,46,21,30.10,29.94,18,5,18,0.00
2013-4-3,65,46,26,36,25,16,84,49,17,30.00,29.85,30,7,30,0.00
2013-4-4,68,49,29,39,28,17,92,52,15,30.01,29.64,25,5,25,0.00
2013-4-5,69,55,38,35,28,20,83,38,20,29.66,29.38,42,14,42,0.00
2013-4-6,49,38,34,34,28,24,85,68,40,29.78,29.65,20,10,20,0.00
2013-4-8,40,38,36,26,26,25,65,60,57,29.49,29.42,11,9,13,0.00
2013-4-9,11,10,9,6,4,2,80,75,69,30.52,30.44,27,13,27,0.00
2013-4-14,40,32,22,21,17,10,82,57,29,29.86,29.56,40,18,40,0.00
2013-4-15,28,23,17,18,14,10,82,70,55,30.13,29.80,20,8,20,0.00
2013-4-16,22,20,18,18,15,12,88,82,67,30.21,30.05,32,15,32,0.00
2013-4-17,22,19,15,16,13,10,84,79,74,30.38,30.22,25,13,25,0.00
2013-4-18,30,20,9,19,12,4,86,73,55,30.38,30.20,25,12,25,0.00
2013-4-19,49,36,22,30,23,12,74,60,40,30.22,29.76,27,11,27,0.00
2013-4-20,54,43,36,36,31,27,80,63,39,29.83,29.71,24,8,24,0.00
2013-4-22,20,18,16,13,12,11,83,77,70,30.50,30.45,9,4,9,0.00
2013-4-23,39,25,11,17,11,2,85,60,24,30.47,30.16,27,8,27,0.00
2013-4-24,41,29,21,21,16,12,74,60,39,30.23,30.11,29,10,29,0.00
2013-5-1,36,31,25,26,22,18,84,70,51,30.66,30.49,17,4,17,0.04
2013-5-2,50,36,22,26,18,11,86,53,22,30.68,30.32,31,9,31,0.00
2013-5-3,65,47,25,25,16,12,68,34,14,30.32,29.89,19,5,19,0.00
2013-5-4,57,46,34,25,21,17,63,38,24,30.09,29.89,24,8,24,0.00
2013-5-5,60,47,31,27,21,17,61,38,22,30.09,29.90,17,8,23,0.00
2013-5-6,67,52,37,30,27,23,70,40,20,29.92,29.72,13,5,16,0.00
2013-5-7,50,44,39,28,28,27,64,53,42,29.73,29.70,4,2,5,0.00
2013-5-15,57,56,55,52,51,49,87,83,78,29.69,29.60,18,6,18,0.16
2013-5-16,76,62,48,51,44,33,91,58,22,29.65,29.47,32,7,32,0.02
2013-5-17,81,64,50,52,41,14,90,54,9,29.59,29.41,31,7,31,0.00
2013-5-18,53,48,45,48,45,43,95,89,80,29.61,29.54,11,4,11,0.00
2013-6-15,76,69,59,45,40,33,55,35,21,29.86,29.67,17,6,17,0.00
2013-6-16,61,51,44,45,41,37,79,70,50,29.79,29.68,14,4,14,0.00
2013-7-1,85,73,54,50,45,39,73,40,21,29.91,29.82,21,6,21,0.00
2013-7-2,85,71,54,50,42,32,77,40,17,29.91,29.72,27,4,27,0.00
2013-7-3,91,73,52,43,36,24,61,31,10,29.74,29.52,25,5,25,0.00
2013-7-4,89,72,59,50,44,34,69,40,19,29.61,29.52,13,3,13,0.00
2013-7-5,87,84,80,53,49,42,38,30,24,29.50,29.44,25,11,25,0.06
2013-7-6,86,75,62,56,52,41,80,46,22,29.67,29.53,23,8,23,0.05
2013-7-7,90,74,60,58,49,31,88,50,13,29.72,29.55,24,6,24,0.00
2013-7-8,90,74,60,60,48,35,87,47,16,29.69,29.58,30,8,30,0.00
2013-7-9,91,72,54,52,45,31,83,46,13,29.80,29.66,26,7,26,0.00
2013-7-10,93,74,60,55,48,28,75,47,10,29.80,29.64,28,4,28,0.00
2013-7-12,88,78,66,56,50,44,67,39,24,29.60,29.45,30,6,30,0.00
2013-7-13,90,76,62,55,46,36,66,39,17,29.73,29.57,30,7,30,0.00
2013-7-14,81,69,60,58,52,46,83,57,36,29.95,29.70,29,10,29,0.00
2013-7-15,64,62,60,61,59,58,95,88,83,29.87,29.76,23,8,23,0.00
2013-7-24,89,76,58,59,52,44,74,46,23,29.78,29.65,33,8,33,0.04
2013-7-25,73,68,63,52,48,46,67,49,38,29.89,29.83,14,5,14,0.00
2013-7-26,76,61,52,54,50,43,90,69,32,29.95,29.79,20,5,20,0.00
2013-7-27,78,64,55,56,51,46,84,65,35,29.82,29.63,30,8,30,0.01
2013-7-28,82,66,50,55,51,44,89,63,28,29.68,29.48,33,6,35,0.17
2013-7-29,59,57,56,54,54,53,91,88,83,29.61,29.58,13,2,13,0.00
2013-7-30,76,68,58,53,50,43,74,56,31,29.89,29.79,19,6,19,0.00
2013-7-31,83,69,52,54,50,43,91,54,27,30.02,29.82,20,3,20,0.00
2013-8-1,86,72,56,57,51,44,89,52,27,29.83,29.48,30,6,30,0.00
2013-8-2,89,73,58,58,52,34,89,51,15,29.60,29.50,26,8,26,0.00
2013-8-3,82,68,59,64,58,48,98,72,42,29.82,29.57,33,9,33,0.00
2013-8-4,91,73,57,59,49,32,85,50,13,29.80,29.59,18,5,18,0.00
2013-8-5,89,74,58,60,48,28,94,48,13,29.73,29.49,25,5,25,0.00
2013-8-6,85,72,55,54,47,36,86,47,18,29.67,29.51,25,5,25,0.00
2013-8-8,63,60,57,50,48,45,71,63,57,29.87,29.80,25,5,25,0.06
2013-8-9,78,64,54,56,50,43,91,66,31,29.97,29.77,25,6,29,0.05
2013-8-10,82,67,51,54,47,38,90,55,24,29.94,29.75,20,3,20,0.00
2013-8-11,83,69,55,56,45,36,81,47,20,29.84,29.73,25,6,25,0.07
2013-8-13,66,62,59,51,48,44,75,61,46,29.92,29.84,19,6,19,0.02
2013-8-14,82,67,52,52,44,32,82,48,18,29.91,29.74,17,5,17,0.00
2013-8-15,86,69,53,54,44,32,91,49,15,29.83,29.74,20,5,20,0.00
2013-8-16,92,73,53,47,37,22,72,34,9,29.84,29.68,17,3,17,0.00
2013-8-17,66,62,59,44,42,37,57,48,35,29.70,29.66,6,1,6,0.00
2013-8-18,78,70,65,51,50,47,55,49,33,29.70,29.63,10,2,10,0.03
2013-8-19,94,76,59,49,39,20,69,34,8,29.74,29.53,24,6,24,0.00
2013-8-20,90,75,58,50,38,32,49,29,14,29.67,29.56,33,6,33,0.00
2013-8-21,83,74,64,52,49,44,62,43,27,29.77,29.59,29,4,29,0.00
2013-8-22,86,71,60,58,52,48,83,55,28,29.87,29.68,32,6,32,0.17
2013-8-23,88,73,58,58,52,43,88,53,23,29.74,29.50,35,6,35,0.06
2013-8-24,86,71,59,56,48,36,78,48,18,29.72,29.52,31,7,31,0.00
2013-8-25,84,73,58,51,45,41,63,38,26,29.79,29.67,25,7,25,0.00
2013-8-26,88,76,66,52,47,39,59,38,19,29.73,29.65,33,10,33,0.00
2013-8-27,90,74,64,60,50,41,73,46,21,29.77,29.62,38,6,38,0.01
2013-8-28,94,75,59,56,49,39,81,45,16,29.79,29.61,24,4,24,0.00
2013-8-29,90,77,60,52,43,38,56,33,16,29.84,29.62,26,4,26,0.00
2013-8-30,93,77,58,53,44,28,79,37,13,29.80,29.59,23,7,23,0.00
2013-8-31,84,72,60,46,39,34,48,32,17,29.85,29.59,21,8,22,0.00
2013-9-1,86,70,54,48,43,39,60,40,21,29.85,29.70,18,4,18,0.00
2013-9-2,89,71,56,59,51,43,79,54,22,29.77,29.62,22,4,22,0.11
2013-9-3,89,74,60,57,52,43,83,50,22,29.75,29.61,24,6,24,0.00
2013-9-4,94,77,59,52,48,40,72,42,17,29.83,29.70,18,4,18,0.00
2013-9-7,90,79,64,49,44,38,47,31,18,29.72,29.61,26,6,26,0.00
2013-9-8,86,70,59,60,52,42,80,56,24,29.70,29.52,30,5,30,0.05
2013-9-9,73,63,56,56,52,47,86,68,41,29.76,29.50,21,6,21,0.00
2013-9-10,67,60,50,52,47,42,93,64,43,29.93,29.76,14,3,14,0.00
2013-9-11,65,61,55,53,50,46,87,68,57,30.04,29.91,20,6,20,0.00
2013-9-12,65,59,53,57,52,50,92,78,62,30.09,29.90,17,5,17,0.11
2013-9-13,62,58,53,59,55,51,98,91,76,29.93,29.63,17,6,17,0.28
2013-9-14,53,52,50,52,51,50,98,97,96,29.68,29.66,4,0,4,0.01
2013-9-16,67,60,55,48,45,44,67,59,51,29.70,29.65,6,1,6,0.00
2013-9-17,84,69,54,51,44,35,72,43,23,29.69,29.35,27,9,27,0.00
2013-9-18,81,65,48,49,39,21,85,44,16,29.69,29.31,34,10,34,0.00
2013-9-19,64,51,40,38,33,26,83,53,24,30.05,29.68,21,4,21,0.00
2013-9-20,75,54,34,36,29,18,84,44,13,30.06,29.72,17,3,17,0.00
2013-9-21,84,64,43,33,27,20,58,28,11,29.72,29.37,29,7,29,0.00
2013-9-22,79,63,53,49,39,27,71,44,23,29.46,29.26,40,8,40,0.01
2013-9-23,57,55,51,44,43,42,74,64,57,29.37,29.26,18,8,18,0.00
2013-9-24,66,65,64,28,25,24,24,22,22,29.57,29.49,13,7,13,0.00
2013-9-27,33,32,32,32,31,31,95,94,94,29.82,29.78,2,1,5,0.07
2013-9-28,56,47,37,34,32,29,73,55,40,30.00,29.91,31,18,31,0.01
2013-10-1,57,54,51,40,36,33,61,51,43,29.74,29.64,4,0,4,0.00
2013-10-2,57,50,42,39,31,26,74,49,36,29.93,29.60,23,7,23,0.00
2013-10-3,51,42,33,42,35,31,94,77,56,29.93,29.63,24,9,24,0.36
2013-10-4,33,29,26,31,27,24,98,93,90,30.36,29.87,37,18,37,0.01
2013-10-5,39,31,21,26,23,18,94,74,56,30.36,30.20,33,16,33,0.02
2013-10-6,54,42,34,38,31,24,78,66,51,30.24,30.06,25,10,25,0.00
2013-10-7,69,54,36,34,30,25,82,45,20,30.06,29.54,32,11,32,0.00
2013-10-8,69,59,51,32,30,24,47,33,19,29.58,29.44,30,14,30,0.00
2013-10-12,43,38,35,34,33,32,90,83,71,30.06,30.01,4,0,4,0.00
2013-10-13,56,44,33,44,38,31,96,81,57,30.02,29.77,17,4,17,0.02
2013-10-14,45,36,30,43,32,25,96,85,75,30.30,29.72,35,14,35,0.16
2013-10-15,37,31,28,27,25,23,88,78,59,30.36,30.15,20,7,20,0.00
2013-10-16,50,37,26,29,23,16,81,60,30,30.16,29.93,28,10,28,0.00
2013-10-17,38,34,28,31,28,25,92,80,64,30.12,29.97,15,4,15,0.00
2013-10-18,42,34,28,29,24,19,92,69,40,30.23,29.99,33,12,33,0.03
2013-10-19,57,45,33,29,24,20,66,47,26,29.99,29.75,29,11,29,0.00
2013-10-20,44,37,31,36,32,27,94,84,53,30.10,29.74,28,8,28,0.27
2013-10-21,55,43,30,33,30,26,90,63,35,30.09,29.92,33,12,33,0.01
2013-10-22,62,48,36,34,32,30,77,55,30,30.08,29.90,24,9,24,0.00
2013-10-23,60,45,35,36,32,29,90,64,33,30.15,29.93,14,5,16,0.00
2013-10-24,54,41,29,38,34,26,94,76,46,30.24,30.10,10,1,10,0.00
2013-10-25,36,36,36,33,33,33,90,90,90,30.09,30.09,0,0,0,0.00
2013-10-29,32,32,32,32,32,31,98,98,97,29.93,29.85,13,3,13,0.01
2013-10-30,47,38,32,37,30,25,100,76,44,29.85,29.67,24,9,24,0.01
2013-10-31,52,39,26,30,25,20,85,61,32,29.82,29.65,35,13,35,0.00
2013-11-1,47,36,25,27,21,13,88,58,28,30.19,29.80,35,11,35,0.00
2013-11-2,63,44,23,28,20,15,78,46,16,30.16,29.42,36,10,36,0.00
2013-11-3,52,42,28,33,24,15,92,54,26,29.82,29.37,23,7,23,0.00
2013-11-4,35,27,14,25,18,8,91,71,45,30.06,29.82,16,4,16,0.08
2013-11-5,36,27,20,23,16,6,89,63,31,30.19,29.97,23,8,23,0.00
2013-11-6,47,34,22,22,16,10,84,51,27,30.36,30.06,32,9,32,0.00
2013-11-7,52,41,22,29,24,16,82,53,35,30.35,29.61,35,10,35,0.00
2013-11-8,54,45,29,29,22,18,68,42,27,29.93,29.54,38,12,38,0.00
2013-11-9,46,37,28,24,22,18,76,57,41,30.21,29.91,18,4,18,0.00
2013-11-10,63,44,24,29,24,20,85,51,24,30.18,29.94,24,8,24,0.00
2013-11-11,44,34,25,28,25,21,90,71,47,30.60,29.93,19,4,19,0.00
2013-11-12,60,38,19,32,24,15,92,64,28,30.64,30.13,18,3,18,0.00
2013-11-13,58,48,37,37,20,16,83,35,20,30.16,29.86,26,9,26,0.02
2013-11-16,42,37,28,23,20,15,64,49,41,29.37,29.20,46,19,46,0.00
2013-11-17,42,33,22,20,12,-4,70,44,16,30.01,29.34,36,17,36,0.00
2013-11-18,58,44,30,21,18,12,60,37,17,30.01,29.71,28,13,28,0.00
2013-11-19,56,48,41,30,24,15,64,41,27,29.71,29.44,38,18,38,0.00
2013-11-20,54,34,10,30,20,3,85,59,29,30.23,29.54,38,14,38,0.00
2013-11-21,13,9,4,6,2,-1,78,75,68,30.84,30.20,20,6,20,0.00
2013-11-22,25,12,3,10,0,-7,74,58,45,30.92,30.73,20,7,20,0.00
2013-11-23,27,14,4,11,3,-6,79,63,47,30.88,30.45,16,4,16,0.00
2013-11-24,38,24,8,20,13,1,79,62,45,30.45,30.09,27,10,27,0.00
2013-11-25,41,31,22,24,20,17,82,64,42,30.38,30.19,16,7,16,0.00
2013-11-26,32,27,22,22,20,16,83,72,63,30.39,30.11,18,9,18,0.00
2013-11-27,53,38,27,23,20,18,70,51,27,30.14,29.91,28,8,28,0.00
2013-11-28,41,31,22,24,20,14,74,64,49,30.23,30.06,6,1,6,0.00
2013-11-29,53,43,34,23,21,18,59,42,26,30.12,29.95,24,11,24,0.00
2013-11-30,48,37,29,24,22,18,73,55,31,30.13,29.98,26,9,26,0.00
2013-12-1,47,39,29,27,24,21,73,57,42,30.06,29.62,36,14,36,0.00
2013-12-2,52,45,37,28,26,21,64,48,33,29.64,29.31,39,19,39,0.00
2013-12-3,39,13,2,28,6,-6,85,73,62,30.15,29.31,30,12,30,0.00
2013-12-4,3,-4,-15,-4,-12,-23,71,66,58,30.51,30.11,23,9,23,0.00
2013-12-5,1,-7,-15,-8,-15,-24,73,67,60,30.62,30.41,13,2,13,0.00
2013-12-6,-2,-10,-16,-10,-17,-24,71,68,63,30.75,30.51,6,0,6,0.00
2013-12-7,-4,-9,-15,-12,-16,-23,72,69,67,30.63,30.30,13,3,13,0.00
2013-12-8,8,2,-7,-4,-8,-15,76,62,53,30.38,30.17,21,6,21,0.00
2013-12-9,18,7,-10,4,-5,-19,75,58,41,30.37,30.19,38,14,38,0.00
2013-12-10,26,19,8,15,7,1,82,62,49,30.42,30.01,44,15,44,0.00
2013-12-11,32,19,-2,14,6,-8,81,60,42,30.49,30.22,31,10,31,0.00
2013-12-12,43,32,22,23,14,9,61,48,35,30.31,29.84,33,10,33,0.00
2013-12-13,38,29,25,18,13,10,57,50,42,29.99,29.82,21,12,21,0.00
2013-12-14,38,34,23,21,18,14,67,53,39,30.31,30.07,33,15,33,0.00
2013-12-15,46,38,28,21,18,15,67,47,32,30.12,29.92,38,16,38,0.00
2013-12-16,50,41,32,20,17,12,56,38,25,30.14,29.94,36,15,36,0.00
2013-12-17,53,42,29,18,15,12,57,36,21,30.22,29.83,34,15,34,0.00
2013-12-18,55,46,37,19,15,11,46,29,20,29.83,29.49,33,15,33,0.00
2013-12-19,38,16,3,22,8,-4,89,72,44,30.17,29.49,30,10,33,0.00
2013-12-20,22,13,3,11,5,-3,81,68,56,30.17,29.66,29,8,29,0.00
2013-12-21,25,22,13,18,14,8,84,73,57,30.06,29.57,25,10,25,0.00
2013-12-22,25,17,7,14,10,1,85,75,58,30.21,30.04,19,4,19,0.00
2013-12-23,39,28,5,30,20,0,83,70,59,30.43,29.92,35,11,35,0.04
2013-12-24,38,28,13,30,21,5,90,76,64,30.37,29.79,32,11,32,0.00
2013-12-25,31,22,11,15,9,2,69,58,45,30.58,30.23,25,10,25,0.00
2013-12-26,39,31,24,22,16,10,69,55,42,30.33,30.14,24,10,24,0.00
2013-12-27,45,35,27,28,22,16,66,59,49,30.29,29.90,21,8,21,0.00
2013-12-28,40,25,3,25,14,-3,80,66,46,30.44,29.77,34,11,34,0.00
2013-12-29,15,6,-4,8,0,-10,80,76,71,30.56,30.41,17,8,17,0.00
2013-12-30,34,28,19,21,16,10,69,61,53,30.29,29.95,28,10,28,0.00
2013-12-31,40,35,30,29,24,18,92,63,53,29.98,29.82,32,15,32,0.00
2014-1-1,31,23,15,29,20,8,93,85,73,30.39,29.91,20,7,20,0.02
2014-1-2,36,22,12,22,12,3,77,65,49,30.42,30.13,23,9,23,0.01